createdAt,value
2022-10-14T00:00:49.205Z,11.82
2022-10-14T00:03:20.235Z,11.48
2022-10-14T00:05:52.080Z,11.62
2022-10-14T00:08:21.960Z,11.93
2022-10-14T00:10:56.080Z,11.70
2022-10-14T00:13:34.844Z,11.41
2022-10-14T00:16:07.248Z,11.48
2022-10-14T00:18:37.751Z,11.39
2022-10-14T00:21:07.279Z,11.63
2022-10-14T00:23:39.616Z,11.69
2022-10-14T00:26:18.872Z,12.05
2022-10-14T00:28:50.227Z,12.03
2022-10-14T00:31:20.383Z,11.74
2022-10-14T00:33:52.989Z,11.50
2022-10-14T00:36:25.051Z,11.84
2022-10-14T00:38:59.343Z,11.70
2022-10-14T00:41:32.825Z,11.88
2022-10-14T00:44:17.027Z,11.55
2022-10-14T00:46:50.888Z,11.51
2022-10-14T00:49:29.831Z,11.40
2022-10-14T00:52:04.516Z,11.50
2022-10-14T00:54:41.227Z,11.58
2022-10-14T00:57:12.642Z,11.74
2022-10-14T00:59:45.531Z,11.34
2022-10-14T01:02:15.635Z,11.61
2022-10-14T01:04:48.081Z,11.91
2022-10-14T01:07:36.056Z,11.74
2022-10-14T01:10:28.675Z,11.44
2022-10-14T01:13:03.159Z,11.50
2022-10-14T01:15:39.813Z,11.23
2022-10-14T01:18:50.054Z,11.69
2022-10-14T01:21:26.343Z,11.59
2022-10-14T01:24:14.134Z,11.05
2022-10-14T01:27:16.691Z,11.16
2022-10-14T01:29:57.651Z,11.05
2022-10-14T01:32:58.426Z,11.28
2022-10-14T01:35:45.123Z,10.99
2022-10-14T01:38:25.816Z,11.32
2022-10-14T01:41:06.287Z,11.43
2022-10-14T01:43:40.965Z,11.44
2022-10-14T01:46:15.029Z,11.16
2022-10-14T01:48:49.954Z,11.14
2022-10-14T01:51:28.916Z,11.35
2022-10-14T01:54:11.605Z,11.34
2022-10-14T01:56:43.647Z,11.47
2022-10-14T01:59:17.467Z,11.26
2022-10-14T02:01:47.026Z,11.30
2022-10-14T02:04:24.618Z,11.53
2022-10-14T02:07:30.518Z,11.46
2022-10-14T02:10:30.148Z,11.17
2022-10-14T02:13:31.346Z,11.29
2022-10-14T02:16:10.830Z,11.08
2022-10-14T02:18:43.630Z,11.27
2022-10-14T02:21:41.346Z,11.26
2022-10-14T02:24:44.058Z,11.32
2022-10-14T02:27:15.907Z,11.23
2022-10-14T02:29:46.478Z,11.19
2022-10-14T02:32:15.665Z,11.26
2022-10-14T02:34:47.768Z,10.92
2022-10-14T02:37:21.013Z,11.35
2022-10-14T02:40:06.079Z,11.35
2022-10-14T02:42:34.400Z,11.06
2022-10-14T02:45:06.862Z,11.34
2022-10-14T02:47:36.540Z,11.18
2022-10-14T02:50:04.876Z,11.34
2022-10-14T02:52:34.317Z,11.38
2022-10-14T02:55:02.773Z,11.05
2022-10-14T02:57:31.190Z,11.18
2022-10-14T02:59:59.663Z,11.01
2022-10-14T03:02:29.087Z,11.20
2022-10-14T03:04:59.291Z,11.29
2022-10-14T03:07:27.514Z,11.52
2022-10-14T03:09:59.088Z,11.33
2022-10-14T03:12:27.103Z,11.02
2022-10-14T03:15:00.696Z,11.21
2022-10-14T03:17:30.841Z,11.37
2022-10-14T03:19:59.595Z,11.36
2022-10-14T03:22:29.832Z,11.20
2022-10-14T03:25:03.334Z,11.19
2022-10-14T03:27:33.512Z,11.39
2022-10-14T03:30:03.895Z,11.56
2022-10-14T03:32:37.382Z,11.27
2022-10-14T03:35:10.412Z,11.29
2022-10-14T03:37:39.427Z,11.51
2022-10-14T03:40:09.009Z,11.50
2022-10-14T03:42:38.082Z,11.60
2022-10-14T03:45:08.666Z,11.75
2022-10-14T03:47:37.934Z,11.90
2022-10-14T03:50:09.096Z,11.52
2022-10-14T03:52:44.835Z,11.67
2022-10-14T03:55:16.370Z,11.65
2022-10-14T03:57:45.799Z,11.74
2022-10-14T04:00:14.906Z,11.66
2022-10-14T04:02:43.838Z,11.68
2022-10-14T04:05:14.171Z,11.83
2022-10-14T04:07:43.419Z,11.55
2022-10-14T04:10:13.508Z,11.59
2022-10-14T04:12:46.869Z,11.56
2022-10-14T04:15:25.522Z,11.62
2022-10-14T04:17:56.548Z,11.57
2022-10-14T04:20:25.074Z,11.37
2022-10-14T04:22:53.453Z,11.91
2022-10-14T04:25:27.303Z,11.59
2022-10-14T04:27:56.087Z,11.48
2022-10-14T04:30:27.939Z,11.43
2022-10-14T04:32:56.857Z,11.47
2022-10-14T04:35:25.253Z,11.65
2022-10-14T04:37:57.443Z,11.64
2022-10-14T04:40:26.491Z,11.55
2022-10-14T04:42:56.359Z,11.29
2022-10-14T04:45:25.969Z,11.34
2022-10-14T04:47:54.746Z,11.36
2022-10-14T04:50:24.768Z,11.48
2022-10-14T04:53:13.296Z,11.54
2022-10-14T04:55:46.939Z,11.49
2022-10-14T04:58:16.040Z,11.46
2022-10-14T05:00:44.930Z,11.57
2022-10-14T05:03:19.779Z,11.63
2022-10-14T05:05:48.632Z,11.34
2022-10-14T05:08:20.186Z,11.26
2022-10-14T05:10:49.225Z,11.29
2022-10-14T05:13:22.350Z,11.36
2022-10-14T05:15:53.072Z,11.36
2022-10-14T05:18:22.868Z,11.29
2022-10-14T05:20:59.234Z,11.39
2022-10-14T05:23:31.003Z,11.29
2022-10-14T05:25:59.678Z,11.34
2022-10-14T05:28:27.309Z,11.34
2022-10-14T05:30:56.780Z,11.40
2022-10-14T05:33:25.157Z,11.68
2022-10-14T05:35:59.617Z,11.46
2022-10-14T05:38:31.695Z,11.44
2022-10-14T05:40:59.833Z,11.31
2022-10-14T05:43:32.178Z,11.51
2022-10-14T05:46:01.571Z,11.20
2022-10-14T05:48:29.920Z,11.51
2022-10-14T05:51:02.299Z,11.48
2022-10-14T05:53:32.652Z,11.57
2022-10-14T05:56:05.732Z,11.65
2022-10-14T05:58:34.803Z,11.56
2022-10-14T06:01:06.807Z,11.72
2022-10-14T06:03:34.720Z,11.65
2022-10-14T06:06:02.851Z,11.76
2022-10-14T06:08:31.122Z,11.81
2022-10-14T06:11:03.170Z,12.00
2022-10-14T06:13:31.279Z,12.44
2022-10-14T06:16:07.804Z,12.49
2022-10-14T06:18:36.622Z,12.59
2022-10-14T06:21:07.629Z,12.87
2022-10-14T06:23:35.501Z,12.88
2022-10-14T06:26:06.869Z,13.26
2022-10-14T06:28:35.034Z,13.43
2022-10-14T06:31:03.199Z,13.56
2022-10-14T06:33:31.769Z,13.51
2022-10-14T06:36:02.723Z,13.80
2022-10-14T06:38:30.678Z,13.96
2022-10-14T06:40:58.825Z,13.99
2022-10-14T06:43:27.949Z,14.15
2022-10-14T06:45:57.714Z,14.25
2022-10-14T06:48:25.417Z,14.35
2022-10-14T06:50:53.850Z,14.40
2022-10-14T06:53:21.459Z,14.42
2022-10-14T06:55:48.924Z,14.66
2022-10-14T06:58:16.741Z,14.68
2022-10-14T07:00:47.945Z,14.92
2022-10-14T07:03:15.808Z,14.97
2022-10-14T07:05:44.133Z,15.17
2022-10-14T07:08:15.244Z,15.33
2022-10-14T07:10:44.033Z,15.32
2022-10-14T07:13:12.303Z,15.61
2022-10-14T07:15:40.392Z,15.76
2022-10-14T07:18:08.648Z,15.85
2022-10-14T07:20:36.122Z,15.79
2022-10-14T07:23:04.492Z,15.88
2022-10-14T07:25:33.136Z,16.01
2022-10-14T07:28:00.722Z,15.95
2022-10-14T07:30:28.498Z,16.08
2022-10-14T07:32:56.990Z,16.21
2022-10-14T07:35:26.789Z,16.08
2022-10-14T07:37:54.979Z,16.29
2022-10-14T07:40:23.106Z,16.37
2022-10-14T07:42:51.357Z,16.76
2022-10-14T07:45:21.283Z,16.89
2022-10-14T07:47:50.574Z,16.96
2022-10-14T07:50:18.684Z,17.02
2022-10-14T07:52:46.630Z,17.16
2022-10-14T07:55:14.630Z,17.24
2022-10-14T07:57:42.239Z,17.54
2022-10-14T08:00:10.074Z,17.59
2022-10-14T08:02:39.301Z,17.68
2022-10-14T08:05:32.868Z,17.71
2022-10-14T08:07:55.115Z,17.91
2022-10-14T08:10:23.212Z,18.00
2022-10-14T08:12:52.027Z,18.25
2022-10-14T08:15:20.502Z,18.20
2022-10-14T08:17:48.479Z,18.34
2022-10-14T08:20:16.066Z,18.80
2022-10-14T08:22:44.179Z,18.76
2022-10-14T08:25:12.560Z,18.92
2022-10-14T08:27:41.162Z,19.13
2022-10-14T08:30:11.437Z,19.10
2022-10-14T08:32:40.190Z,19.08
2022-10-14T08:35:08.830Z,19.17
2022-10-14T08:37:36.897Z,19.18
2022-10-14T08:40:05.788Z,19.45
2022-10-14T08:42:36.153Z,19.72
2022-10-14T08:45:10.269Z,19.55
2022-10-14T08:47:43.045Z,19.76
2022-10-14T08:50:26.888Z,19.95
2022-10-14T08:52:56.777Z,19.99
2022-10-14T08:55:33.125Z,20.00
2022-10-14T08:58:10.386Z,20.22
2022-10-14T09:00:42.275Z,20.05
2022-10-14T09:03:21.042Z,20.35
2022-10-14T09:06:14.110Z,20.43
2022-10-14T09:08:48.094Z,20.80
2022-10-14T09:11:20.679Z,21.04
2022-10-14T09:13:59.980Z,21.05
2022-10-14T09:16:31.843Z,21.03
2022-10-14T09:19:06.365Z,21.47
2022-10-14T09:21:52.342Z,21.35
2022-10-14T09:24:24.115Z,21.43
2022-10-14T09:29:28.803Z,21.58
2022-10-14T09:32:01.751Z,21.78
2022-10-14T09:34:34.356Z,21.71
2022-10-14T09:37:28.738Z,21.89
2022-10-14T09:40:07.001Z,21.93
2022-10-14T09:42:59.324Z,21.75
2022-10-14T09:45:30.186Z,21.98
2022-10-14T09:48:04.152Z,22.41
2022-10-14T09:50:40.847Z,22.30
2022-10-14T09:53:16.905Z,22.29
2022-10-14T09:55:50.250Z,22.65
2022-10-14T09:58:21.082Z,22.63
2022-10-14T10:00:57.073Z,22.71
2022-10-14T10:03:35.685Z,22.71
2022-10-14T10:06:08.421Z,23.06
2022-10-14T10:08:43.061Z,22.88
2022-10-14T10:11:14.069Z,22.93
2022-10-14T10:13:46.459Z,22.59
2022-10-14T10:16:27.345Z,22.67
2022-10-14T10:18:57.283Z,22.74
2022-10-14T10:21:27.686Z,23.34
2022-10-14T10:24:00.935Z,23.07
2022-10-14T10:26:34.065Z,22.99
2022-10-14T10:29:04.289Z,23.22
2022-10-14T10:31:32.575Z,23.49
2022-10-14T10:34:30.161Z,23.70
2022-10-14T10:37:25.546Z,23.94
2022-10-14T10:40:18.703Z,23.70
2022-10-14T10:43:14.599Z,23.64
2022-10-14T10:46:04.710Z,23.76
2022-10-14T10:48:44.364Z,23.37
2022-10-14T10:51:41.043Z,23.84
2022-10-14T10:54:31.514Z,23.83
2022-10-14T10:57:04.262Z,24.00
2022-10-14T10:59:36.861Z,23.94
2022-10-14T11:02:33.981Z,23.61
2022-10-14T11:05:29.677Z,24.08
2022-10-14T11:08:54.445Z,23.84
2022-10-14T11:12:03.186Z,24.18
2022-10-14T11:14:40.047Z,24.14
2022-10-14T11:17:31.175Z,24.22
2022-10-14T11:20:12.618Z,24.58
2022-10-14T11:22:53.271Z,24.34
2022-10-14T11:25:49.494Z,24.00
2022-10-14T11:28:29.863Z,24.13
2022-10-14T11:31:26.834Z,24.81
2022-10-14T11:34:04.547Z,24.24
2022-10-14T11:36:38.316Z,24.31
2022-10-14T11:39:14.637Z,24.60
2022-10-14T11:42:24.802Z,24.61
2022-10-14T11:45:20.450Z,24.24
2022-10-14T11:48:02.403Z,24.29
2022-10-14T11:50:37.187Z,24.35
2022-10-14T11:53:13.732Z,24.47
2022-10-14T11:55:46.422Z,24.62
2022-10-14T11:58:17.878Z,24.30
2022-10-14T12:00:47.625Z,24.61
2022-10-14T12:03:43.907Z,24.64
2022-10-14T12:06:34.699Z,24.49
2022-10-14T12:09:20.142Z,24.34
2022-10-14T12:11:53.582Z,24.35
2022-10-14T12:14:35.388Z,24.64
2022-10-14T12:17:06.848Z,24.40
2022-10-14T12:19:35.764Z,24.35
2022-10-14T12:22:19.260Z,24.01
2022-10-14T12:24:51.138Z,23.52
2022-10-14T12:27:20.317Z,23.67
2022-10-14T12:29:51.073Z,23.71
2022-10-14T12:32:24.871Z,23.51
2022-10-14T12:34:58.134Z,23.65
2022-10-14T12:37:32.544Z,23.87
2022-10-14T12:40:03.765Z,23.50
2022-10-14T12:43:14.051Z,23.53
2022-10-14T12:46:01.074Z,23.37
2022-10-14T12:48:34.192Z,23.61
2022-10-14T12:51:15.712Z,23.56
2022-10-14T12:54:06.366Z,23.58
2022-10-14T12:56:40.182Z,23.83
2022-10-14T12:59:28.714Z,23.83
2022-10-14T13:02:22.224Z,24.02
2022-10-14T13:04:52.699Z,24.45
2022-10-14T13:07:42.571Z,24.44
2022-10-14T13:10:41.865Z,23.91
2022-10-14T13:13:56.036Z,24.08
2022-10-14T13:16:23.675Z,24.35
2022-10-14T13:19:04.688Z,24.27
2022-10-14T13:21:35.455Z,24.48
2022-10-14T13:24:41.949Z,24.05
2022-10-14T13:27:15.664Z,24.17
2022-10-14T13:30:11.044Z,24.11
2022-10-14T13:32:49.408Z,24.22
2022-10-14T13:36:01.195Z,24.21
2022-10-14T13:38:31.800Z,24.28
2022-10-14T13:40:59.740Z,24.09
2022-10-14T13:43:37.872Z,24.14
2022-10-14T13:46:34.385Z,24.56
2022-10-14T13:49:07.775Z,24.49
2022-10-14T13:51:48.190Z,24.42
2022-10-14T13:54:24.430Z,24.52
2022-10-14T14:02:39.934Z,24.84
2022-10-14T14:05:15.288Z,24.77
2022-10-14T14:10:39.140Z,24.50
2022-10-14T14:13:14.664Z,24.71
2022-10-14T14:15:49.572Z,24.72
2022-10-14T14:18:43.365Z,24.90
2022-10-14T14:21:23.773Z,24.43
2022-10-14T14:24:00.276Z,24.39
2022-10-14T14:26:36.165Z,24.27
2022-10-14T14:29:15.475Z,23.91
2022-10-14T14:34:32.596Z,23.78
2022-10-14T14:37:32.001Z,23.53
2022-10-14T14:40:16.527Z,23.97
2022-10-14T14:42:48.134Z,23.90
2022-10-14T14:45:25.593Z,24.32
2022-10-14T14:47:57.365Z,24.52
2022-10-14T14:50:33.731Z,24.68
2022-10-14T14:53:04.544Z,24.89
2022-10-14T14:55:41.315Z,24.79
2022-10-14T14:58:26.674Z,25.16
2022-10-14T15:00:56.349Z,24.43
2022-10-14T15:03:26.706Z,24.51
2022-10-14T15:06:00.061Z,24.06
2022-10-14T15:08:38.163Z,24.10
2022-10-14T15:11:06.370Z,24.11
2022-10-14T15:13:43.675Z,23.80
2022-10-14T15:16:11.629Z,23.43
2022-10-14T15:18:42.662Z,23.40
2022-10-14T15:21:11.742Z,23.40
2022-10-14T15:23:48.386Z,23.30
2022-10-14T15:26:28.931Z,23.14
2022-10-14T15:29:11.808Z,22.75
2022-10-14T15:31:40.474Z,22.88
2022-10-14T15:34:22.010Z,22.73
2022-10-14T15:36:51.358Z,22.61
2022-10-14T15:39:21.928Z,22.62
2022-10-14T15:41:50.070Z,22.47
2022-10-14T15:44:18.133Z,22.27
2022-10-14T15:47:06.148Z,22.30
2022-10-14T15:49:39.074Z,21.80
2022-10-14T15:52:14.141Z,21.66
2022-10-14T15:54:42.350Z,21.41
2022-10-14T15:57:15.567Z,21.28
2022-10-14T15:59:46.452Z,21.14
2022-10-14T16:02:20.755Z,21.16
2022-10-14T16:05:18.769Z,21.09
2022-10-14T16:07:42.304Z,21.14
2022-10-14T16:10:15.460Z,20.79
2022-10-14T16:12:44.204Z,21.19
2022-10-14T16:15:30.604Z,20.67
2022-10-14T16:17:58.721Z,20.92
2022-10-14T16:20:28.120Z,20.92
2022-10-14T16:22:56.038Z,20.90
2022-10-14T16:25:33.679Z,20.97
2022-10-14T16:28:07.578Z,20.55
2022-10-14T16:30:42.002Z,20.15
2022-10-14T16:35:38.492Z,20.28
2022-10-14T16:38:06.465Z,19.86
2022-10-14T16:40:36.736Z,19.83
2022-10-14T16:43:09.657Z,19.49
2022-10-14T16:45:40.937Z,18.74
2022-10-14T16:48:10.425Z,18.82
2022-10-14T16:50:38.547Z,18.23
2022-10-14T16:53:27.686Z,17.79
2022-10-14T16:55:58.856Z,17.78
2022-10-14T16:58:29.805Z,18.04
2022-10-14T17:00:57.754Z,18.03
2022-10-14T17:03:25.658Z,18.12
2022-10-14T17:05:59.236Z,18.37
2022-10-14T17:08:27.588Z,18.39
2022-10-14T17:11:01.024Z,18.50
2022-10-14T17:13:29.497Z,18.61
2022-10-14T17:16:02.071Z,18.21
2022-10-14T17:18:34.574Z,18.58
2022-10-14T17:21:08.611Z,18.66
2022-10-14T17:23:39.251Z,18.23
2022-10-14T17:26:12.120Z,18.00
2022-10-14T17:28:41.781Z,18.32
2022-10-14T17:31:16.655Z,18.47
2022-10-14T17:33:46.904Z,18.10
2022-10-14T17:36:24.266Z,17.98
2022-10-14T17:38:52.454Z,18.11
2022-10-14T17:41:22.199Z,17.78
2022-10-14T17:43:52.519Z,18.17
2022-10-14T17:46:23.974Z,18.11
2022-10-14T17:48:54.325Z,18.23
2022-10-14T17:51:26.863Z,17.75
2022-10-14T17:54:01.112Z,17.91
2022-10-14T17:56:35.351Z,18.02
2022-10-14T17:59:07.688Z,17.75
2022-10-14T18:01:38.026Z,17.72
2022-10-14T18:04:24.837Z,17.56
2022-10-14T18:06:54.365Z,17.42
2022-10-14T18:09:22.938Z,17.02
2022-10-14T18:12:09.453Z,17.01
2022-10-14T18:14:40.771Z,17.01
2022-10-14T18:17:13.535Z,17.15
2022-10-14T18:19:41.932Z,17.23
2022-10-14T18:22:11.278Z,17.13
2022-10-14T18:24:39.905Z,16.91
2022-10-14T18:27:07.589Z,17.10
2022-10-14T18:29:35.780Z,16.89
2022-10-14T18:32:05.954Z,16.68
2022-10-14T18:34:34.276Z,16.85
2022-10-14T18:37:03.636Z,16.79
2022-10-14T18:39:31.611Z,16.88
2022-10-14T18:42:00.371Z,16.68
2022-10-14T18:44:36.821Z,16.62
2022-10-14T18:47:05.763Z,16.28
2022-10-14T18:49:39.826Z,16.63
2022-10-14T18:52:09.967Z,16.34
2022-10-14T18:54:38.589Z,16.27
2022-10-14T18:57:06.244Z,16.34
2022-10-14T18:59:36.237Z,16.27
2022-10-14T19:02:16.082Z,16.18
2022-10-14T19:04:44.539Z,16.25
2022-10-14T19:07:16.429Z,16.22
2022-10-14T19:09:45.128Z,16.34
2022-10-14T19:12:33.226Z,16.53
2022-10-14T19:15:03.269Z,16.71
2022-10-14T19:17:35.971Z,16.18
2022-10-14T19:20:05.669Z,16.05
2022-10-14T19:22:34.604Z,16.20
2022-10-14T19:25:04.471Z,15.93
2022-10-14T19:27:32.598Z,16.24
2022-10-14T19:30:01.571Z,16.22
2022-10-14T19:32:32.919Z,16.00
2022-10-14T19:35:02.207Z,16.24
2022-10-14T19:37:33.207Z,16.18
2022-10-14T19:40:01.344Z,15.95
2022-10-14T19:42:29.492Z,15.70
2022-10-14T19:44:59.247Z,15.62
2022-10-14T19:47:27.430Z,15.58
2022-10-14T19:49:56.439Z,15.47
2022-10-14T19:52:31.388Z,15.23
2022-10-14T19:54:59.446Z,15.38
2022-10-14T19:57:27.135Z,14.73
2022-10-14T19:59:55.800Z,14.82
2022-10-14T20:02:24.417Z,15.01
2022-10-14T20:04:52.289Z,14.98
2022-10-14T20:07:22.848Z,15.04
2022-10-14T20:09:51.357Z,15.06
2022-10-14T20:12:22.428Z,15.14
2022-10-14T20:14:50.557Z,15.26
2022-10-14T20:19:57.561Z,15.24
2022-10-14T20:22:27.552Z,15.44
2022-10-14T20:25:00.435Z,14.95
2022-10-14T20:27:31.254Z,14.90
2022-10-14T20:30:02.858Z,14.79
2022-10-14T20:32:31.950Z,14.68
2022-10-14T20:35:01.814Z,14.60
2022-10-14T20:37:32.464Z,14.59
2022-10-14T20:40:02.270Z,14.60
2022-10-14T20:42:30.398Z,14.82
2022-10-14T20:44:58.765Z,14.55
2022-10-14T20:47:31.815Z,14.60
2022-10-14T20:49:59.648Z,14.55
2022-10-14T20:52:33.114Z,14.62
2022-10-14T20:55:00.952Z,14.42
2022-10-14T20:57:28.799Z,14.46
2022-10-14T20:59:58.402Z,14.51
2022-10-14T21:02:28.792Z,14.67
2022-10-14T21:04:56.326Z,14.42
2022-10-14T21:07:25.785Z,14.36
2022-10-14T21:09:54.128Z,14.45
2022-10-14T21:12:23.200Z,14.72
2022-10-14T21:14:51.951Z,14.12
2022-10-14T21:17:21.847Z,14.21
2022-10-14T21:19:49.567Z,14.08
2022-10-14T21:22:17.907Z,14.03
2022-10-14T21:24:45.427Z,14.21
2022-10-14T21:27:13.815Z,14.27
2022-10-14T21:29:42.926Z,14.23
2022-10-14T21:32:10.858Z,14.46
2022-10-14T21:34:39.190Z,14.24
2022-10-14T21:37:07.141Z,14.43
2022-10-14T21:39:34.782Z,14.72
2022-10-14T21:42:02.554Z,14.49
2022-10-14T21:44:30.826Z,14.46
2022-10-14T21:46:59.558Z,14.39
2022-10-14T21:49:27.616Z,14.45
2022-10-14T21:51:55.898Z,14.44
2022-10-14T21:54:24.859Z,14.33
2022-10-14T21:56:52.398Z,14.48
2022-10-14T21:59:21.678Z,14.22
2022-10-14T22:01:51.035Z,14.31
2022-10-14T22:04:22.419Z,14.06
2022-10-14T22:06:53.556Z,14.06
2022-10-14T22:09:25.546Z,14.15
2022-10-14T22:11:57.285Z,14.19
2022-10-14T22:14:27.490Z,14.29
2022-10-14T22:16:56.596Z,14.33
2022-10-14T22:19:30.452Z,13.92
2022-10-14T22:22:01.785Z,13.72
2022-10-14T22:24:31.430Z,14.15
2022-10-14T22:27:00.257Z,14.19
2022-10-14T22:29:29.852Z,13.98
2022-10-14T22:32:03.835Z,13.97
2022-10-14T22:34:35.563Z,13.70
2022-10-14T22:37:08.798Z,13.93
2022-10-14T22:39:38.497Z,14.03
2022-10-14T22:42:12.215Z,13.95
2022-10-14T22:44:43.309Z,14.15
2022-10-14T22:47:15.359Z,13.96
2022-10-14T22:49:46.356Z,13.80
2022-10-14T22:52:20.345Z,13.92
2022-10-14T22:54:50.239Z,13.58
2022-10-14T22:57:21.175Z,13.70
2022-10-14T22:59:51.908Z,13.68
2022-10-14T23:02:23.990Z,13.85
2022-10-14T23:04:53.307Z,13.99
2022-10-14T23:07:26.028Z,13.86
2022-10-14T23:09:55.898Z,13.44
2022-10-14T23:12:27.672Z,13.80
2022-10-14T23:14:59.755Z,13.57
2022-10-14T23:17:43.887Z,13.60
2022-10-14T23:20:13.345Z,13.38
2022-10-14T23:22:45.125Z,13.88
2022-10-14T23:25:15.661Z,13.32
2022-10-14T23:27:47.661Z,13.44
2022-10-14T23:30:17.266Z,13.51
2022-10-14T23:32:48.786Z,13.70
2022-10-14T23:35:22.396Z,13.28
2022-10-14T23:37:54.325Z,13.31
2022-10-14T23:40:23.767Z,13.11
2022-10-14T23:42:55.415Z,13.14
2022-10-14T23:45:26.067Z,13.57
2022-10-14T23:47:59.936Z,13.34
2022-10-14T23:50:28.937Z,13.34
2022-10-14T23:53:02.337Z,13.08
2022-10-14T23:55:31.867Z,13.34
2022-10-14T23:58:01.736Z,13.36
